65VA weather

Nat'l Hosp For Orthopaedics/Rehabilitation Heliport
Arlington, Virginia, United States

Public forecast

Using degrees Fahrenheit for public forecast. Weather courtesy of forecast.io.

Closest aviation weather report (METAR) to Nat'l Hosp For Orthopaedics/Rehabilitation Heliport

Closest report is Ronald Reagan Washington National Airport, 1.8 nm (3.4 km) E. Retrieved 2020/05/26 07:52 UTC (41 minutes ago):

KDCA 260752Z 00000KT 10SM SCT250 18/16 A3018 RMK AO2 SLP217 T01780156

Closest aviation forecast (TAF) to Nat'l Hosp For Orthopaedics/Rehabilitation Heliport

Closest forecast is Ronald Reagan Washington National Airport, 1.8 nm (3.4 km) E. Retrieved 2020/05/26 06:22 UTC (2 hours ago):

TAF KDCA 260520Z 2606/2712 VRB03KT 6SM BR SCT250 FM260900 00000KT 5SM BR BKN025 FM261100 00000KT 5SM BR BKN007 FM261400 14003KT P6SM BKN025 FM261700 11006KT P6SM SCT025 FM270500 14004KT P6SM BKN030